createdAt,value
2023-05-06T00:04:44.560Z,14.96
2023-05-06T00:09:47.536Z,14.93
2023-05-06T00:14:51.776Z,14.76
2023-05-06T00:19:54.641Z,14.62
2023-05-06T00:24:57.520Z,14.89
2023-05-06T00:30:01.775Z,14.89
2023-05-06T00:35:05.195Z,14.91
2023-05-06T00:40:09.824Z,14.78
2023-05-06T00:45:14.232Z,14.75
2023-05-06T00:50:17.504Z,14.49
2023-05-06T00:55:21.439Z,14.63
2023-05-06T01:00:26.317Z,14.44
2023-05-06T01:05:36.905Z,14.51
2023-05-06T01:10:46.162Z,14.53
2023-05-06T01:15:55.323Z,14.56
2023-05-06T01:20:59.231Z,14.54
2023-05-06T01:26:04.570Z,14.30
2023-05-06T01:31:12.418Z,14.23
2023-05-06T01:36:21.129Z,13.99
2023-05-06T01:41:27.085Z,14.35
2023-05-06T01:46:32.099Z,14.49
2023-05-06T01:51:35.347Z,14.43
2023-05-06T01:56:39.583Z,14.43
2023-05-06T02:01:42.574Z,14.41
2023-05-06T02:06:45.469Z,14.40
2023-05-06T02:11:53.091Z,14.40
2023-05-06T02:16:56.328Z,14.47
2023-05-06T02:21:59.273Z,14.20
2023-05-06T02:27:04.276Z,14.22
2023-05-06T02:32:07.536Z,14.29
2023-05-06T02:37:10.413Z,14.03
2023-05-06T02:42:16.335Z,13.98
2023-05-06T02:47:19.294Z,14.07
2023-05-06T02:52:22.324Z,14.13
2023-05-06T02:57:26.983Z,14.20
2023-05-06T03:02:29.913Z,14.25
2023-05-06T03:07:33.110Z,14.13
2023-05-06T03:12:37.530Z,14.21
2023-05-06T03:17:40.604Z,14.29
2023-05-06T03:22:43.922Z,14.27
2023-05-06T03:27:48.237Z,14.33
2023-05-06T03:32:56.097Z,14.22
2023-05-06T03:38:04.872Z,14.30
2023-05-06T03:43:16.535Z,14.38
2023-05-06T03:48:22.848Z,14.39
2023-05-06T03:53:26.686Z,14.31
2023-05-06T03:58:31.004Z,14.35
2023-05-06T04:03:36.873Z,14.43
2023-05-06T04:08:39.948Z,14.46
2023-05-06T04:13:44.367Z,14.44
2023-05-06T04:18:52.803Z,14.30
2023-05-06T04:23:56.029Z,14.15
2023-05-06T04:29:08.072Z,14.15
2023-05-06T04:34:16.993Z,14.24
2023-05-06T04:39:21.181Z,14.46
2023-05-06T04:44:27.211Z,14.56
2023-05-06T04:49:30.703Z,14.66
2023-05-06T04:54:33.818Z,14.52
2023-05-06T04:59:38.142Z,14.46
2023-05-06T05:04:41.343Z,14.70
2023-05-06T05:09:45.444Z,14.78
2023-05-06T05:14:50.054Z,14.91
2023-05-06T05:19:53.691Z,15.01
2023-05-06T05:24:57.338Z,15.02
2023-05-06T05:30:01.964Z,15.10
2023-05-06T05:35:10.383Z,15.03
2023-05-06T05:40:14.834Z,14.81
2023-05-06T05:45:21.188Z,14.73
2023-05-06T05:50:26.109Z,14.76
2023-05-06T05:55:30.688Z,14.75
2023-05-06T06:00:35.432Z,14.74
2023-05-06T06:05:46.261Z,14.62
2023-05-06T06:10:50.056Z,14.78
2023-05-06T06:15:58.961Z,14.58
2023-05-06T06:21:02.043Z,14.58
2023-05-06T06:26:05.508Z,14.63
2023-05-06T06:31:10.832Z,14.70
2023-05-06T06:36:14.480Z,14.77
2023-05-06T06:41:18.523Z,14.78
2023-05-06T06:46:22.829Z,14.93
2023-05-06T06:51:25.870Z,15.48
2023-05-06T06:56:28.802Z,15.65
2023-05-06T07:01:33.150Z,15.80
2023-05-06T07:06:36.371Z,15.91
2023-05-06T07:11:39.297Z,15.75
2023-05-06T07:16:45.427Z,15.60
2023-05-06T07:21:49.790Z,15.61
2023-05-06T07:26:52.722Z,15.44
2023-05-06T07:31:56.990Z,15.43
2023-05-06T07:36:59.897Z,14.95
2023-05-06T07:42:02.827Z,15.70
2023-05-06T07:47:07.442Z,15.99
2023-05-06T07:52:10.376Z,16.10
2023-05-06T07:57:13.219Z,16.19
2023-05-06T08:02:18.096Z,16.29
2023-05-06T08:07:21.239Z,16.46
2023-05-06T08:12:24.215Z,16.42
2023-05-06T08:17:28.581Z,16.19
2023-05-06T08:22:31.613Z,15.33
2023-05-06T08:27:34.522Z,15.05
2023-05-06T08:32:39.603Z,14.60
2023-05-06T08:37:42.582Z,15.12
2023-05-06T08:42:47.850Z,15.78
2023-05-06T08:47:52.931Z,15.12
2023-05-06T08:52:56.496Z,14.99
2023-05-06T08:58:00.021Z,15.25
2023-05-06T09:03:04.719Z,15.73
2023-05-06T09:08:07.781Z,15.45
2023-05-06T09:13:13.277Z,15.73
2023-05-06T09:18:17.921Z,14.76
2023-05-06T09:23:23.415Z,14.95
2023-05-06T09:28:34.080Z,15.33
2023-05-06T09:33:38.924Z,15.39
2023-05-06T09:38:42.034Z,15.50
2023-05-06T09:43:48.988Z,16.08
2023-05-06T09:48:54.647Z,15.23
2023-05-06T09:53:58.363Z,15.15
2023-05-06T09:59:04.272Z,15.07
2023-05-06T10:04:10.989Z,14.98
2023-05-06T10:09:14.717Z,15.97
2023-05-06T10:14:17.664Z,15.76
2023-05-06T10:19:26.696Z,14.87
2023-05-06T10:24:37.985Z,15.29
2023-05-06T10:29:42.530Z,15.90
2023-05-06T10:34:54.536Z,16.21
2023-05-06T10:39:57.752Z,15.12
2023-05-06T10:45:03.440Z,15.18
2023-05-06T10:50:23.415Z,15.68
2023-05-06T10:55:28.249Z,15.88
2023-05-06T11:00:35.432Z,15.76
2023-05-06T11:05:49.877Z,15.46
2023-05-06T11:10:53.055Z,14.97
2023-05-06T11:15:57.087Z,15.46
2023-05-06T11:21:33.158Z,15.64
2023-05-06T11:26:37.432Z,16.34
2023-05-06T11:31:42.378Z,17.01
2023-05-06T11:36:51.331Z,17.94
2023-05-06T11:41:55.693Z,16.33
2023-05-06T11:47:04.496Z,15.97
2023-05-06T11:52:09.265Z,17.73
2023-05-06T11:57:15.030Z,16.79
2023-05-06T12:02:20.365Z,17.58
2023-05-06T12:07:23.557Z,17.44
2023-05-06T12:12:28.113Z,17.50
2023-05-06T12:17:31.297Z,17.16
2023-05-06T12:22:34.228Z,17.88
2023-05-06T12:27:39.765Z,18.27
2023-05-06T12:32:58.112Z,16.38
2023-05-06T12:38:09.834Z,16.32
2023-05-06T12:43:14.133Z,15.86
2023-05-06T12:48:17.615Z,15.53
2023-05-06T12:53:33.170Z,16.62
2023-05-06T12:58:39.649Z,16.20
2023-05-06T13:03:42.600Z,16.76
2023-05-06T13:08:45.648Z,17.47
2023-05-06T13:13:49.922Z,16.35
2023-05-06T13:18:53.449Z,16.72
2023-05-06T13:23:56.383Z,16.67
2023-05-06T13:29:00.843Z,17.39
2023-05-06T13:34:04.106Z,17.71
2023-05-06T13:39:07.073Z,15.85
2023-05-06T13:44:11.407Z,15.67
2023-05-06T13:49:14.968Z,15.77
2023-05-06T13:54:17.854Z,15.72
2023-05-06T13:59:23.017Z,16.00
2023-05-06T14:04:26.622Z,16.41
2023-05-06T14:09:29.499Z,16.26
2023-05-06T14:14:33.736Z,16.42
2023-05-06T14:19:36.785Z,15.64
2023-05-06T14:24:39.714Z,16.07
2023-05-06T14:29:46.038Z,15.57
2023-05-06T14:34:48.936Z,15.77
2023-05-06T14:39:52.885Z,15.57
2023-05-06T14:44:57.670Z,15.05
2023-05-06T14:50:00.983Z,15.68
2023-05-06T14:55:05.061Z,15.44
2023-05-06T15:00:12.722Z,15.65
2023-05-06T15:05:16.373Z,16.38
2023-05-06T15:10:19.989Z,16.20
2023-05-06T15:15:24.547Z,14.80
2023-05-06T15:20:27.856Z,14.66
2023-05-06T15:25:36.232Z,14.39
2023-05-06T15:30:41.880Z,14.54
2023-05-06T15:35:44.974Z,14.90
2023-05-06T15:40:51.377Z,14.98
2023-05-06T15:45:55.653Z,14.90
2023-05-06T15:50:58.739Z,15.07
2023-05-06T15:56:13.167Z,15.18
2023-05-06T16:01:26.947Z,14.99
2023-05-06T16:06:43.620Z,15.15
2023-05-06T16:11:46.665Z,14.39
2023-05-06T16:16:51.131Z,14.19
2023-05-06T16:21:54.419Z,14.40
2023-05-06T16:26:57.545Z,14.77
2023-05-06T16:32:01.920Z,14.42
2023-05-06T16:37:07.506Z,14.74
2023-05-06T16:42:10.410Z,14.61
2023-05-06T16:47:14.770Z,14.14
2023-05-06T16:52:18.410Z,14.52
2023-05-06T16:57:21.392Z,14.33
2023-05-06T17:02:25.894Z,13.99
2023-05-06T17:07:28.931Z,14.03
2023-05-06T17:12:32.899Z,13.92
2023-05-06T17:17:37.236Z,13.65
2023-05-06T17:22:40.215Z,13.83
2023-05-06T17:27:43.252Z,13.46
2023-05-06T17:32:47.836Z,13.67
2023-05-06T17:37:51.376Z,13.74
2023-05-06T17:42:54.508Z,13.40
2023-05-06T17:47:58.805Z,13.14
2023-05-06T17:53:01.748Z,13.17
2023-05-06T17:58:04.613Z,13.09
2023-05-06T18:03:09.093Z,13.31
2023-05-06T18:08:12.575Z,13.19
2023-05-06T18:13:15.535Z,12.76
2023-05-06T18:18:19.891Z,12.61
2023-05-06T18:23:22.816Z,12.58
2023-05-06T18:28:25.724Z,12.63
2023-05-06T18:33:30.064Z,12.87
2023-05-06T18:38:32.959Z,12.36
2023-05-06T18:43:35.972Z,12.49
2023-05-06T18:48:40.276Z,12.72
2023-05-06T18:53:43.301Z,12.30
2023-05-06T18:58:46.392Z,11.67
2023-05-06T19:03:51.768Z,11.74
2023-05-06T19:08:54.797Z,11.68
2023-05-06T19:13:57.689Z,11.72
2023-05-06T19:19:07.236Z,11.54
2023-05-06T19:24:10.164Z,11.91
2023-05-06T19:29:14.626Z,11.27
2023-05-06T19:34:18.958Z,11.28
2023-05-06T19:39:22.470Z,11.64
2023-05-06T19:44:25.805Z,11.78
2023-05-06T19:49:32.354Z,11.41
2023-05-06T19:54:35.555Z,11.04
2023-05-06T19:59:38.607Z,11.19
2023-05-06T20:04:44.005Z,11.20
2023-05-06T20:09:46.920Z,11.25
2023-05-06T20:14:50.564Z,11.37
2023-05-06T20:19:57.262Z,11.37
2023-05-06T20:25:09.413Z,10.99
2023-05-06T20:30:12.996Z,11.08
2023-05-06T20:35:17.645Z,11.32
2023-05-06T20:40:20.650Z,11.60
2023-05-06T20:45:23.586Z,11.46
2023-05-06T20:50:29.904Z,11.08
2023-05-06T20:55:33.899Z,11.05
2023-05-06T21:00:36.857Z,11.25
2023-05-06T21:05:41.067Z,11.31
2023-05-06T21:10:43.970Z,11.23
2023-05-06T21:15:46.882Z,11.12
2023-05-06T21:20:51.244Z,11.05
2023-05-06T21:25:54.341Z,11.00
2023-05-06T21:30:57.239Z,11.00
2023-05-06T21:36:01.505Z,10.60
2023-05-06T21:41:04.477Z,10.86
2023-05-06T21:46:07.388Z,11.10
2023-05-06T21:51:11.673Z,11.09
2023-05-06T21:56:14.990Z,11.08
2023-05-06T22:01:18.125Z,10.51
2023-05-06T22:06:23.386Z,10.56
2023-05-06T22:11:26.459Z,10.87
2023-05-06T22:16:29.569Z,10.72
2023-05-06T22:21:34.594Z,10.97
2023-05-06T22:26:37.532Z,10.87
2023-05-06T22:31:40.450Z,10.65
2023-05-06T22:36:44.808Z,10.41
2023-05-06T22:41:48.963Z,10.67
2023-05-06T22:46:52.212Z,10.49
2023-05-06T22:51:57.041Z,10.73
2023-05-06T22:57:00.112Z,10.86
2023-05-06T23:02:03.257Z,10.42
2023-05-06T23:07:07.580Z,10.08
2023-05-06T23:12:10.443Z,10.14
2023-05-06T23:17:13.385Z,10.16
2023-05-06T23:22:17.738Z,10.30
2023-05-06T23:27:20.601Z,10.19
2023-05-06T23:32:23.499Z,10.34
2023-05-06T23:37:27.748Z,10.15
2023-05-06T23:42:34.319Z,10.09
2023-05-06T23:47:37.228Z,10.18
2023-05-06T23:52:41.516Z,9.90
2023-05-06T23:57:44.474Z,9.83
